Time;durP1;ratioP1;P1;durP2;ratioP2;P2;SDS_P1;SDS_P2;PMS_P1;PMS_P2;Temp;Humidity;BMP_temperature;BMP_pressure;BME280_temperature;BME280_humidity;BME280_pressure;Samples;Min_cycle;Max_cycle;Signal;HPM_P1;HPM_P2
2022/10/12 00:14:35;;;;;;;21.30;10.88;;;;;;;13.15;94.43;95216.22;4886603;29;20656;-70
2022/10/12 00:17:40;;;;;;;20.50;11.15;;;;;;;13.11;94.85;95216.06;5007629;28;20349;-70
2022/10/12 00:31:23;;;;;;;18.63;9.63;;;;;;;13.01;94.78;95199.31;5049597;28;20254;-69
2022/10/12 00:33:52;;;;;;;15.35;8.50;;;;;;;13.01;94.52;95204.75;4986083;28;20794;-69
2022/10/12 00:36:54;;;;;;;20.25;9.25;;;;;;;13.03;94.08;95202.50;5048348;28;20253;-69
2022/10/12 00:46:38;;;;;;;15.73;8.10;;;;;;;12.81;92.93;95198.94;4858756;29;20227;-69
2022/10/12 00:49:38;;;;;;;14.68;8.75;;;;;;;12.90;92.36;95204.31;4916716;29;20236;-69
2022/10/12 00:52:24;;;;;;;14.30;8.70;;;;;;;12.84;92.75;95199.41;4916438;29;20207;-69
2022/10/12 00:55:35;;;;;;;30.23;10.10;;;;;;;12.78;93.34;95199.59;4986246;28;20248;-68
2022/10/12 01:08:31;;;;;;;13.70;7.65;;;;;;;12.77;93.72;95195.28;5028975;28;20223;-70
2022/10/12 01:18:48;;;;;;;12.15;7.10;;;;;;;12.72;93.78;95203.59;4878686;29;20224;-70
2022/10/12 01:42:31;;;;;;;15.02;7.75;;;;;;;13.06;91.77;95190.97;5019904;28;21020;-70
2022/10/12 02:05:02;;;;;;;17.80;9.48;;;;;;;13.23;91.50;95196.34;5085053;28;20238;-70
2022/10/12 02:15:32;;;;;;;;;;;;;;;;;;;;;
2022/10/12 02:21:38;;;;;;;20.63;10.13;;;;;;;13.03;93.82;95213.38;4813675;29;20229;-70
2022/10/12 02:24:08;;;;;;;19.55;10.52;;;;;;;12.98;94.39;95217.09;4873334;29;20661;-70
2022/10/12 02:26:40;;;;;;;23.35;11.35;;;;;;;12.96;94.60;95223.97;4948311;28;20205;-70
2022/10/12 02:29:13;;;;;;;20.08;9.82;;;;;;;13.02;94.54;95223.44;5051036;28;20249;-70
2022/10/12 02:31:52;;;;;;;22.58;12.90;;;;;;;13.08;94.19;95222.16;5101751;28;20269;-70
2022/10/12 02:34:24;;;;;;;19.38;10.52;;;;;;;13.07;94.69;95230.63;5093646;28;20255;-70
2022/10/12 02:36:56;;;;;;;26.73;12.60;;;;;;;13.17;94.00;95219.41;5091934;28;20190;-70
2022/10/12 02:39:28;;;;;;;16.58;8.73;;;;;;;13.20;93.91;95217.97;5086269;28;20233;-70
2022/10/12 02:42:03;;;;;;;28.17;17.10;;;;;;;13.19;93.71;95228.03;5097408;28;20243;-70
2022/10/12 02:44:35;;;;;;;22.27;10.73;;;;;;;13.21;93.75;95220.34;5091513;28;20229;-70
2022/10/12 02:47:04;;;;;;;20.08;10.93;;;;;;;13.20;93.59;95218.75;5105208;28;20369;-70
2022/10/12 02:49:35;;;;;;;19.88;9.90;;;;;;;13.19;93.65;95219.88;5091495;28;20260;-70
2022/10/12 02:52:04;;;;;;;19.85;9.60;;;;;;;13.22;93.86;95219.22;5090849;28;20194;-70
2022/10/12 02:54:31;;;;;;;21.23;10.60;;;;;;;13.06;94.42;95223.59;5091826;28;20331;-70
2022/10/12 02:56:58;;;;;;;22.33;10.63;;;;;;;13.07;94.83;95226.00;5105492;28;20207;-70
2022/10/12 02:59:26;;;;;;;19.10;9.25;;;;;;;13.17;94.63;95224.84;5091512;28;20271;-70
2022/10/12 03:01:53;;;;;;;24.38;10.80;;;;;;;13.13;94.53;95224.66;5090682;28;20233;-70
2022/10/12 03:04:19;;;;;;;22.20;11.23;;;;;;;13.04;95.04;95220.41;5091143;28;20237;-70
2022/10/12 03:06:48;;;;;;;22.33;11.82;;;;;;;12.95;95.37;95206.88;5090963;28;20259;-70
2022/10/12 03:09:15;;;;;;;26.90;11.93;;;;;;;13.01;95.40;95221.84;5091311;28;20277;-70
2022/10/12 03:11:42;;;;;;;27.70;13.70;;;;;;;12.92;95.76;95214.88;5090144;28;20643;-70
2022/10/12 03:14:10;;;;;;;23.73;10.90;;;;;;;12.95;96.00;95222.38;5090904;28;20205;-70
2022/10/12 03:16:37;;;;;;;20.23;10.70;;;;;;;12.97;95.73;95209.25;5077337;28;20209;-70
2022/10/12 03:19:04;;;;;;;19.00;11.13;;;;;;;13.04;95.56;95217.69;5090711;28;20198;-70
2022/10/12 03:21:31;;;;;;;25.02;12.90;;;;;;;12.97;95.86;95220.13;5090855;28;20608;-71
2022/10/12 03:23:59;;;;;;;19.48;10.57;;;;;;;13.03;95.45;95216.88;5091106;28;20209;-70
2022/10/12 03:26:26;;;;;;;25.33;10.95;;;;;;;12.97;95.89;95214.69;5090785;28;20596;-69
2022/10/12 03:28:53;;;;;;;25.25;11.93;;;;;;;12.96;95.80;95222.06;5090921;28;20206;-69
2022/10/12 03:31:19;;;;;;;27.92;11.52;;;;;;;12.99;95.77;95212.44;5090590;28;20237;-69
2022/10/12 03:33:46;;;;;;;23.67;11.80;;;;;;;13.12;95.47;95216.84;5104105;28;20726;-69
2022/10/12 03:36:13;;;;;;;25.40;11.80;;;;;;;13.01;95.69;95221.84;5090038;28;20225;-70
2022/10/12 03:38:40;;;;;;;25.08;12.48;;;;;;;13.01;95.88;95215.63;5090086;28;20198;-70
2022/10/12 03:41:08;;;;;;;25.25;12.38;;;;;;;13.03;95.88;95216.88;5089999;28;20256;-70
2022/10/12 03:43:35;;;;;;;25.13;12.02;;;;;;;13.12;95.37;95219.56;5089977;28;20331;-70
2022/10/12 03:46:01;;;;;;;27.30;12.77;;;;;;;13.07;95.28;95217.03;5090407;28;20218;-69
2022/10/12 03:48:28;;;;;;;23.63;11.98;;;;;;;13.04;95.57;95221.22;5090146;28;20202;-70
2022/10/12 03:50:55;;;;;;;23.30;11.52;;;;;;;13.06;95.50;95220.88;5090261;28;20230;-70
2022/10/12 03:53:22;;;;;;;22.92;12.23;;;;;;;13.00;95.88;95214.03;5091047;28;20190;-70
2022/10/12 03:55:49;;;;;;;22.35;11.10;;;;;;;13.06;96.02;95229.84;5095900;28;20258;-70
2022/10/12 03:58:17;;;;;;;34.28;18.85;;;;;;;13.04;95.88;95215.78;5093922;28;20279;-70
2022/10/12 04:00:44;;;;;;;23.63;11.30;;;;;;;13.07;95.53;95222.47;5089531;28;20203;-70
2022/10/12 04:03:11;;;;;;;21.30;11.40;;;;;;;13.11;95.33;95220.72;5089717;28;20647;-71
2022/10/12 04:05:38;;;;;;;24.35;11.70;;;;;;;13.12;94.94;95216.84;5087977;28;20229;-71
2022/10/12 04:08:05;;;;;;;29.52;12.48;;;;;;;13.12;94.77;95209.47;5088332;28;20202;-71
2022/10/12 04:10:32;;;;;;;26.95;14.65;;;;;;;13.13;94.22;95211.06;5088055;28;20236;-73
2022/10/12 04:12:59;;;;;;;35.33;19.80;;;;;;;13.13;94.16;95218.44;5088349;28;20247;-70
2022/10/12 04:15:27;;;;;;;24.40;10.98;;;;;;;13.13;94.77;95221.94;5088168;28;20921;-70
2022/10/12 04:17:54;;;;;;;23.50;12.25;;;;;;;13.12;94.91;95222.28;5088631;28;20205;-72
2022/10/12 04:20:21;;;;;;;26.85;11.00;;;;;;;13.13;94.70;95229.31;5088549;28;20244;-72
2022/10/12 04:22:47;;;;;;;27.70;13.98;;;;;;;13.14;94.95;95233.63;5088702;28;20802;-71
2022/10/12 04:25:14;;;;;;;26.35;11.55;;;;;;;13.02;94.93;95233.53;5089832;28;20202;-71
2022/10/12 04:27:41;;;;;;;18.75;10.65;;;;;;;13.08;94.54;95234.97;5089768;28;20198;-71
2022/10/12 04:30:09;;;;;;;24.42;11.48;;;;;;;12.96;95.02;95234.88;5089214;28;20210;-70
2022/10/12 04:32:37;;;;;;;34.63;19.52;;;;;;;12.86;95.58;95240.66;5106707;28;20229;-71
2022/10/12 04:35:04;;;;;;;22.67;11.57;;;;;;;12.86;96.17;95235.19;5110011;28;20206;-71
2022/10/12 04:37:31;;;;;;;19.92;11.02;;;;;;;12.81;96.46;95245.16;5090042;28;20217;-71
2022/10/12 04:39:58;;;;;;;28.65;12.93;;;;;;;12.75;96.99;95241.00;5089403;28;20671;-71
2022/10/12 04:42:24;;;;;;;27.13;11.77;;;;;;;12.77;96.88;95233.34;5088864;28;20206;-71
2022/10/12 04:44:51;;;;;;;26.55;12.48;;;;;;;12.65;97.35;95243.31;5089519;28;20252;-72
2022/10/12 04:47:18;;;;;;;27.98;13.60;;;;;;;12.74;97.74;95244.84;5088845;28;20206;-71
2022/10/12 04:49:46;;;;;;;24.92;11.82;;;;;;;12.89;97.22;95240.78;5087439;28;20306;-71
2022/10/12 04:52:13;;;;;;;34.83;18.65;;;;;;;12.97;96.79;95247.34;5094462;28;20301;-71
2022/10/12 04:54:39;;;;;;;22.67;11.85;;;;;;;12.96;97.20;95251.97;5104043;28;20237;-69
2022/10/12 04:57:06;;;;;;;24.55;12.35;;;;;;;13.00;96.56;95249.38;5088480;28;20699;-71
2022/10/12 04:59:33;;;;;;;22.10;11.90;;;;;;;13.06;95.76;95254.31;5085621;28;20604;-71
2022/10/12 05:02:00;;;;;;;22.65;12.48;;;;;;;12.81;96.34;95256.03;5087594;28;20238;-71
2022/10/12 05:04:26;;;;;;;23.83;11.48;;;;;;;12.78;97.58;95256.69;5087357;28;20278;-70
2022/10/12 05:06:55;;;;;;;26.90;11.98;;;;;;;12.92;96.89;95251.03;5091471;28;20198;-70
2022/10/12 05:09:21;;;;;;;33.10;12.00;;;;;;;12.97;96.58;95255.50;5102073;28;20247;-72
2022/10/12 05:11:48;;;;;;;28.27;12.00;;;;;;;12.92;96.76;95256.47;5089293;28;20234;-71
2022/10/12 05:14:15;;;;;;;23.50;12.32;;;;;;;12.91;97.13;95264.94;5091099;28;20202;-71
2022/10/12 05:16:42;;;;;;;34.38;19.13;;;;;;;12.90;96.87;95257.91;5093041;28;20202;-70
2022/10/12 05:19:08;;;;;;;22.88;11.32;;;;;;;12.94;96.79;95264.31;5092269;28;20347;-71
2022/10/12 05:21:35;;;;;;;30.10;13.25;;;;;;;13.02;96.71;95266.16;5092608;28;20281;-71
2022/10/12 05:24:04;;;;;;;25.15;12.27;;;;;;;13.04;96.22;95266.66;5107392;28;20209;-71
2022/10/12 05:26:30;;;;;;;23.20;10.98;;;;;;;12.94;96.72;95275.19;5092575;28;20210;-71
2022/10/12 05:28:58;;;;;;;23.15;10.95;;;;;;;13.08;96.52;95276.56;5088544;28;20187;-71
2022/10/12 05:31:24;;;;;;;20.08;10.52;;;;;;;12.97;96.63;95279.97;5092291;28;20234;-70
2022/10/12 05:33:51;;;;;;;26.23;12.38;;;;;;;12.96;97.17;95278.38;5091837;28;20191;-70
2022/10/12 05:36:19;;;;;;;23.42;11.40;;;;;;;12.93;97.84;95279.03;5091058;28;20719;-70
2022/10/12 05:38:46;;;;;;;21.70;11.95;;;;;;;12.93;98.07;95284.47;5088836;28;20191;-69
2022/10/12 05:41:14;;;;;;;22.02;11.73;;;;;;;12.90;97.86;95279.66;5089665;28;20244;-70
2022/10/12 05:43:41;;;;;;;21.40;11.20;;;;;;;13.01;97.22;95278.16;5090867;28;20271;-71
2022/10/12 05:46:07;;;;;;;16.90;9.35;;;;;;;12.98;96.95;95285.09;5091732;28;20260;-71
2022/10/12 05:48:34;;;;;;;22.30;10.57;;;;;;;13.06;96.87;95289.69;5091665;28;20248;-71
2022/10/12 05:51:01;;;;;;;19.85;9.70;;;;;;;13.04;96.88;95285.69;5089640;28;20272;-71
2022/10/12 05:53:27;;;;;;;18.40;9.18;;;;;;;12.97;97.14;95291.66;5091256;28;20202;-70
2022/10/12 05:55:55;;;;;;;17.25;8.63;;;;;;;13.05;97.05;95292.72;5091730;28;20661;-71
2022/10/12 05:58:24;;;;;;;24.77;10.07;;;;;;;13.04;97.09;95293.84;5094366;28;20856;-71
2022/10/12 06:00:51;;;;;;;23.13;9.90;;;;;;;12.93;97.13;95290.69;5100402;28;20736;-71
2022/10/12 06:03:18;;;;;;;22.13;9.25;;;;;;;13.07;96.76;95293.19;5085014;28;20664;-72
2022/10/12 06:05:45;;;;;;;15.05;8.85;;;;;;;13.13;94.53;95306.28;5106067;28;20229;-71
2022/10/12 06:08:12;;;;;;;17.27;8.02;;;;;;;13.15;93.59;95300.53;5111726;28;20205;-72
2022/10/12 06:10:45;;;;;;;15.48;9.63;;;;;;;13.23;93.48;95305.16;5110804;28;20610;-71
2022/10/12 06:13:11;;;;;;;15.23;8.98;;;;;;;13.42;92.22;95313.69;5111689;28;20214;-71
2022/10/12 06:15:40;;;;;;;15.60;8.48;;;;;;;13.52;92.09;95307.91;5099103;28;20198;-70
2022/10/12 06:18:06;;;;;;;15.38;8.68;;;;;;;13.77;90.89;95308.06;5109694;28;20597;-71
2022/10/12 06:20:33;;;;;;;16.67;9.10;;;;;;;13.79;90.75;95311.25;5110673;28;20233;-70
2022/10/12 06:23:00;;;;;;;14.45;9.05;;;;;;;13.75;90.54;95305.66;5098595;28;20206;-70
2022/10/12 06:25:26;;;;;;;15.13;8.63;;;;;;;13.67;90.83;95309.22;5089677;28;20661;-70
2022/10/12 06:27:53;;;;;;;14.23;7.88;;;;;;;13.84;90.36;95313.75;5111335;28;20250;-70
2022/10/12 06:30:20;;;;;;;20.63;8.77;;;;;;;13.94;90.17;95313.34;5112250;28;20545;-70
2022/10/12 06:32:49;;;;;;;18.02;8.88;;;;;;;14.19;88.59;95323.28;5111443;28;20233;-71
2022/10/12 06:35:15;;;;;;;16.08;8.88;;;;;;;14.19;88.06;95317.84;5111632;28;20235;-71
2022/10/12 06:37:49;;;;;;;17.05;8.23;;;;;;;14.03;87.87;95327.72;5111537;28;20258;-71
2022/10/12 06:40:15;;;;;;;19.38;7.97;;;;;;;14.20;87.71;95322.16;5111943;28;20346;-71
2022/10/12 06:42:42;;;;;;;24.63;7.75;;;;;;;14.19;87.41;95328.72;5111112;28;20612;-71
2022/10/12 06:45:10;;;;;;;16.08;9.00;;;;;;;14.16;87.41;95325.88;5096501;28;20691;-71
2022/10/12 06:47:37;;;;;;;17.38;8.90;;;;;;;14.30;87.18;95331.84;5100078;28;20713;-71
2022/10/12 06:50:06;;;;;;;21.05;13.10;;;;;;;14.44;85.78;95326.94;5111627;28;20197;-71
2022/10/12 06:52:33;;;;;;;16.88;9.32;;;;;;;14.54;85.34;95325.72;5111326;28;20286;-71
2022/10/12 06:55:00;;;;;;;14.25;7.38;;;;;;;14.53;85.31;95324.94;5094670;28;20203;-71
2022/10/12 06:57:27;;;;;;;22.05;8.90;;;;;;;14.55;85.12;95332.78;5101195;28;20358;-71
2022/10/12 06:59:54;;;;;;;12.57;7.85;;;;;;;14.38;86.22;95335.63;5110992;28;20213;-71
2022/10/12 07:02:20;;;;;;;17.45;9.38;;;;;;;14.40;86.28;95336.13;5111255;28;20230;-70
2022/10/12 07:04:49;;;;;;;17.17;8.73;;;;;;;14.48;85.53;95327.09;5111457;28;20286;-71
2022/10/12 07:07:18;;;;;;;16.92;8.50;;;;;;;14.46;86.36;95338.31;5111077;28;20250;-70
2022/10/12 07:09:44;;;;;;;16.30;8.75;;;;;;;14.78;85.38;95336.69;5111016;28;20744;-71
2022/10/12 07:12:11;;;;;;;16.60;8.25;;;;;;;14.65;85.41;95332.34;5111106;28;20265;-71
2022/10/12 07:14:38;;;;;;;18.63;8.50;;;;;;;14.71;84.59;95332.94;5107341;28;20202;-71
2022/10/12 07:17:05;;;;;;;19.65;13.18;;;;;;;14.77;84.57;95335.09;5101317;28;20209;-71
2022/10/12 07:19:35;;;;;;;24.65;13.68;;;;;;;14.98;84.01;95334.25;5110650;28;20236;-71
2022/10/12 07:22:02;;;;;;;20.23;13.77;;;;;;;15.11;83.36;95333.16;5103285;28;20201;-71
2022/10/12 07:24:35;;;;;;;16.42;10.02;;;;;;;15.33;81.97;95329.97;5089986;28;20267;-71
2022/10/12 07:27:02;;;;;;;18.75;8.68;;;;;;;15.64;80.89;95334.91;5090493;28;20202;-71
2022/10/12 07:29:30;;;;;;;18.20;9.82;;;;;;;15.68;80.02;95335.03;5110243;28;20209;-71
2022/10/12 07:31:57;;;;;;;17.67;9.57;;;;;;;15.81;79.68;95336.63;5110813;28;20230;-71
2022/10/12 07:34:23;;;;;;;15.63;8.85;;;;;;;15.02;81.86;95335.19;5111066;28;20269;-71
2022/10/12 07:36:50;;;;;;;23.40;13.85;;;;;;;15.03;83.25;95337.59;5110215;28;20656;-71
2022/10/12 07:39:18;;;;;;;15.85;8.57;;;;;;;15.23;82.34;95331.22;5110953;28;20205;-71
2022/10/12 07:41:46;;;;;;;19.73;8.70;;;;;;;15.41;81.66;95333.75;5111078;28;20225;-71
2022/10/12 07:44:13;;;;;;;19.73;8.98;;;;;;;15.58;81.07;95336.31;5110346;28;20257;-70
2022/10/12 07:46:42;;;;;;;20.02;10.10;;;;;;;15.51;80.93;95336.03;5096815;28;20303;-71
2022/10/12 07:49:11;;;;;;;17.23;9.20;;;;;;;15.25;82.15;95341.81;5097053;28;20657;-71
2022/10/12 07:51:38;;;;;;;15.95;8.70;;;;;;;15.33;81.53;95337.38;5109268;28;20648;-71
2022/10/12 07:54:05;;;;;;;21.35;8.23;;;;;;;15.00;83.07;95342.91;5089207;28;20210;-71
2022/10/12 07:56:33;;;;;;;17.45;8.45;;;;;;;14.90;83.61;95344.91;5104801;28;20622;-71
2022/10/12 07:59:01;;;;;;;26.75;14.23;;;;;;;15.12;83.08;95341.00;5109948;28;20266;-71
2022/10/12 08:01:30;;;;;;;21.13;13.55;;;;;;;15.33;81.55;95335.44;5094802;28;20202;-71
2022/10/12 08:03:58;;;;;;;19.90;9.15;;;;;;;15.26;81.37;95324.31;5098532;28;20745;-70
2022/10/12 08:06:26;;;;;;;20.50;9.40;;;;;;;15.42;81.70;95338.88;5110286;28;20322;-71
2022/10/12 08:08:54;;;;;;;23.25;13.10;;;;;;;15.57;80.46;95335.50;5109816;28;20258;-71
2022/10/12 08:11:22;;;;;;;23.90;9.55;;;;;;;15.36;81.40;95345.69;5110005;28;20692;-71
2022/10/12 08:13:49;;;;;;;20.58;13.23;;;;;;;15.31;81.72;95332.25;5110139;28;20599;-71
2022/10/12 08:16:20;;;;;;;23.52;13.05;;;;;;;15.48;81.47;95337.50;5095887;28;20205;-71
2022/10/12 08:18:47;;;;;;;21.63;11.82;;;;;;;15.40;80.24;95335.69;5109989;28;20714;-71
2022/10/12 08:21:16;;;;;;;16.33;8.63;;;;;;;15.45;80.65;95337.38;5109001;28;20217;-71
2022/10/12 08:23:43;;;;;;;19.88;7.40;;;;;;;15.46;80.09;95333.50;5089008;28;20704;-71
2022/10/12 08:26:11;;;;;;;18.30;11.73;;;;;;;15.52;79.73;95332.97;5085175;28;20199;-71
2022/10/12 08:28:39;;;;;;;13.27;7.60;;;;;;;15.47;79.35;95335.91;5101863;28;20224;-71
2022/10/12 08:31:07;;;;;;;17.63;8.23;;;;;;;15.43;80.17;95329.56;5090240;28;20767;-71
2022/10/12 08:33:35;;;;;;;13.85;7.28;;;;;;;15.64;79.70;95327.53;5102409;28;20209;-71
2022/10/12 08:36:03;;;;;;;13.73;7.88;;;;;;;15.72;79.42;95330.47;5109617;28;20602;-71
2022/10/12 08:38:30;;;;;;;18.00;8.35;;;;;;;15.44;79.40;95336.63;5109530;28;20201;-71
2022/10/12 08:41:05;;;;;;;18.10;9.13;;;;;;;15.16;81.13;95341.13;5110155;28;20205;-71
2022/10/12 08:43:46;;;;;;;14.75;7.05;;;;;;;14.86;81.25;95338.56;5108968;28;20211;-70
2022/10/12 08:46:14;;;;;;;15.95;8.20;;;;;;;14.84;82.00;95335.38;5088777;28;20256;-71
2022/10/12 08:48:48;;;;;;;12.02;6.93;;;;;;;14.91;81.38;95341.06;5106021;28;20726;-71
2022/10/12 08:51:20;;;;;;;30.65;7.82;;;;;;;14.89;81.53;95326.19;5113411;28;20197;-71
2022/10/12 08:53:53;;;;;;;15.35;8.15;;;;;;;14.87;81.31;95331.19;5113903;28;20198;-71
2022/10/12 08:56:21;;;;;;;11.02;6.57;;;;;;;14.81;81.27;95336.03;5113471;28;20242;-70
2022/10/12 08:58:50;;;;;;;11.45;5.55;;;;;;;14.91;81.36;95338.34;5113895;28;20564;-71
2022/10/12 09:01:25;;;;;;;17.98;11.15;;;;;;;15.11;80.78;95336.69;5113739;28;20714;-70
2022/10/12 09:04:05;;;;;;;12.05;6.80;;;;;;;15.21;80.05;95338.16;5113590;28;20284;-70
2022/10/12 09:06:39;;;;;;;17.88;10.98;;;;;;;15.35;80.47;95335.91;5112987;28;20197;-71
2022/10/12 09:09:26;;;;;;;13.38;7.47;;;;;;;15.45;79.92;95335.44;5114055;28;20221;-70
2022/10/12 09:12:04;;;;;;;12.20;6.10;;;;;;;15.36;80.31;95325.78;5113547;28;20218;-71
2022/10/12 09:14:34;;;;;;;8.38;5.13;;;;;;;15.29;80.23;95334.56;5110389;28;20740;-71
2022/10/12 09:17:05;;;;;;;19.38;7.57;;;;;;;15.26;80.09;95335.22;5103302;28;20201;-71
2022/10/12 09:19:38;;;;;;;9.82;5.70;;;;;;;15.15;80.82;95336.81;5113561;28;20668;-71
2022/10/12 09:22:13;;;;;;;16.23;8.68;;;;;;;15.26;80.59;95329.75;5105220;28;20323;-70
2022/10/12 09:24:40;;;;;;;17.25;10.88;;;;;;;15.08;81.27;95339.28;5099530;28;20226;-70
2022/10/12 09:27:14;;;;;;;13.98;6.00;;;;;;;15.11;80.98;95344.06;5112936;28;20206;-70
2022/10/12 09:29:45;;;;;;;14.75;8.13;;;;;;;15.23;80.96;95331.22;5112833;28;20214;-70
2022/10/12 09:32:28;;;;;;;17.38;7.78;;;;;;;15.39;80.61;95334.09;5112948;28;20218;-70
2022/10/12 09:34:56;;;;;;;16.63;10.63;;;;;;;15.47;80.05;95341.38;5112881;28;20202;-70
2022/10/12 09:37:27;;;;;;;17.15;10.75;;;;;;;15.37;80.70;95336.38;5113151;28;20239;-70
2022/10/12 09:39:55;;;;;;;14.15;7.53;;;;;;;15.85;79.73;95334.81;5112733;28;20739;-71
2022/10/12 09:42:22;;;;;;;18.48;6.32;;;;;;;15.90;78.64;95329.09;5112769;28;20218;-70
2022/10/12 09:44:57;;;;;;;12.43;6.25;;;;;;;15.85;79.23;95340.28;5112878;28;20224;-70
2022/10/12 09:47:27;;;;;;;14.13;6.90;;;;;;;16.15;78.06;95327.91;5113012;28;20198;-71
2022/10/12 09:49:57;;;;;;;14.85;7.25;;;;;;;16.35;77.86;95337.88;5112597;28;20204;-71
2022/10/12 09:52:28;;;;;;;15.32;6.78;;;;;;;16.64;76.86;95330.50;5112619;28;20229;-70
2022/10/12 09:54:58;;;;;;;7.95;4.93;;;;;;;16.59;74.94;95325.25;5112811;28;20197;-71
2022/10/12 09:57:28;;;;;;;19.92;10.85;;;;;;;16.51;75.53;95328.94;5111973;28;20205;-70
2022/10/12 09:59:56;;;;;;;14.00;9.13;;;;;;;16.03;76.62;95324.41;5111804;28;20210;-70
2022/10/12 10:02:26;;;;;;;15.02;9.60;;;;;;;16.20;76.76;95329.59;5112643;28;20266;-70
2022/10/12 10:04:54;;;;;;;17.35;9.52;;;;;;;16.27;77.04;95330.59;5112676;28;20377;-70
2022/10/12 10:07:26;;;;;;;10.45;6.63;;;;;;;16.49;76.71;95325.75;5111929;28;20204;-70
2022/10/12 10:10:14;;;;;;;16.95;10.00;;;;;;;16.42;76.92;95331.00;5111813;28;20290;-69
2022/10/12 10:12:47;;;;;;;18.15;9.77;;;;;;;16.03;78.62;95317.00;5097417;28;20325;-70
2022/10/12 10:15:21;;;;;;;10.63;6.47;;;;;;;15.98;78.25;95328.19;5091233;28;20687;-70
2022/10/12 10:17:52;;;;;;;15.35;9.95;;;;;;;16.06;78.85;95319.03;5108248;28;20672;-71
2022/10/12 10:20:26;;;;;;;15.35;6.90;;;;;;;16.26;77.58;95312.59;5111826;28;20668;-71
2022/10/12 10:22:55;;;;;;;17.10;9.70;;;;;;;16.26;76.86;95307.13;5096816;28;20255;-71
2022/10/12 10:25:23;;;;;;;16.05;6.75;;;;;;;16.10;78.42;95306.28;5103427;28;20194;-71
2022/10/12 10:27:51;;;;;;;13.65;7.32;;;;;;;16.72;76.29;95307.66;5111812;28;20205;-72
2022/10/12 10:30:22;;;;;;;11.88;6.35;;;;;;;16.95;75.57;95294.97;5112022;28;20807;-71
2022/10/12 10:33:08;;;;;;;17.55;9.75;;;;;;;17.13;73.75;95295.44;5111750;28;20236;-72
2022/10/12 10:35:35;;;;;;;14.02;9.18;;;;;;;17.38;72.58;95290.56;5111888;28;20201;-72
2022/10/12 10:38:04;;;;;;;14.00;8.93;;;;;;;17.44;71.44;95289.16;5111714;28;20250;-72
2022/10/12 10:40:33;;;;;;;11.27;8.40;;;;;;;17.21;71.94;95285.47;5112120;28;20232;-71
2022/10/12 10:43:04;;;;;;;9.93;5.72;;;;;;;16.86;72.76;95286.16;5101836;28;20298;-71
2022/10/12 10:45:35;;;;;;;12.48;6.50;;;;;;;16.70;74.46;95283.38;5095522;28;20381;-71
2022/10/12 10:48:08;;;;;;;11.57;6.05;;;;;;;16.45;75.39;95286.56;5111808;28;20228;-71
2022/10/12 10:50:38;;;;;;;14.32;8.77;;;;;;;16.58;74.83;95285.34;5111335;28;20258;-71
2022/10/12 10:53:17;;;;;;;12.68;8.50;;;;;;;16.72;74.70;95280.28;5111556;28;20268;-71
2022/10/12 10:55:49;;;;;;;12.70;7.95;;;;;;;17.36;72.08;95268.22;5112022;28;20680;-71
2022/10/12 10:58:24;;;;;;;12.20;5.97;;;;;;;16.96;72.69;95269.19;5111252;28;20202;-70
2022/10/12 11:00:53;;;;;;;10.40;5.90;;;;;;;16.75;73.46;95279.59;5111538;28;20822;-70
2022/10/12 11:03:25;;;;;;;8.32;4.68;;;;;;;16.37;73.99;95268.38;5110575;28;20237;-70
2022/10/12 11:05:57;;;;;;;10.20;5.90;;;;;;;16.81;73.84;95267.25;5111278;28;20541;-71
2022/10/12 11:08:29;;;;;;;9.90;5.28;;;;;;;17.29;72.89;95268.06;5110752;28;20690;-71
2022/10/12 11:10:59;;;;;;;11.00;6.10;;;;;;;16.73;73.29;95272.88;5110877;28;20226;-70
2022/10/12 11:13:32;;;;;;;15.50;9.55;;;;;;;16.44;74.87;95268.56;5104216;28;20214;-71
2022/10/12 11:16:04;;;;;;;9.00;4.97;;;;;;;16.44;75.15;95260.34;5090581;28;20202;-70
2022/10/12 11:18:38;;;;;;;14.70;5.70;;;;;;;16.65;74.35;95269.19;5090468;28;20195;-70
2022/10/12 11:21:11;;;;;;;14.30;9.48;;;;;;;16.97;73.44;95262.56;5107411;28;20688;-71
2022/10/12 11:23:45;;;;;;;9.55;5.82;;;;;;;17.32;72.24;95256.41;5091340;28;20194;-71
2022/10/12 11:26:26;;;;;;;13.55;6.75;;;;;;;17.47;71.74;95261.06;5111082;28;20197;-71
2022/10/12 11:28:54;;;;;;;7.00;4.63;;;;;;;17.34;70.45;95263.13;5094448;28;20252;-70
2022/10/12 11:31:26;;;;;;;14.00;6.57;;;;;;;17.19;71.07;95249.44;5086465;28;20218;-70
2022/10/12 11:33:58;;;;;;;8.38;5.60;;;;;;;17.19;70.65;95249.44;5082404;28;20218;-71
2022/10/12 11:36:28;;;;;;;9.80;5.47;;;;;;;17.00;71.48;95244.66;5086284;28;20222;-71
2022/10/12 11:39:01;;;;;;;11.85;6.30;;;;;;;16.92;72.10;95249.19;5088099;28;20186;-71
2022/10/12 11:41:37;;;;;;;16.30;9.32;;;;;;;16.60;73.28;95244.78;5086206;28;20186;-70
2022/10/12 11:44:12;;;;;;;14.07;9.35;;;;;;;16.75;72.55;95249.50;5088112;28;20630;-70
2022/10/12 11:46:44;;;;;;;13.75;8.93;;;;;;;16.93;72.07;95239.03;5087987;28;20198;-70
2022/10/12 11:49:16;;;;;;;10.32;5.93;;;;;;;17.13;71.16;95239.88;5086734;28;20195;-71
2022/10/12 11:51:47;;;;;;;11.05;6.05;;;;;;;16.95;70.69;95248.44;5088061;28;20653;-71
2022/10/12 11:54:22;;;;;;;4.28;3.10;;;;;;;16.76;71.27;95242.88;5087467;28;20213;-71
2022/10/12 11:56:52;;;;;;;18.02;9.73;;;;;;;16.97;71.31;95242.63;5086002;28;20186;-70
2022/10/12 11:59:28;;;;;;;14.65;9.00;;;;;;;17.23;70.97;95233.88;5087354;28;20195;-71
2022/10/12 12:02:05;;;;;;;10.85;8.20;;;;;;;17.38;70.08;95247.56;5087719;28;20268;-71
2022/10/12 12:04:35;;;;;;;13.05;8.20;;;;;;;17.45;69.68;95246.13;5085726;28;20664;-70
2022/10/12 12:07:03;;;;;;;8.10;5.15;;;;;;;17.35;69.67;95242.00;5087635;28;20198;-71
2022/10/12 12:09:42;;;;;;;11.90;5.55;;;;;;;17.46;69.61;95240.31;5089015;28;20267;-70
2022/10/12 12:12:28;;;;;;;8.90;5.18;;;;;;;17.16;69.86;95244.66;5086125;28;20191;-72
2022/10/12 12:15:07;;;;;;;11.35;6.10;;;;;;;17.14;70.10;95244.22;5089102;28;20672;-71
2022/10/12 12:17:35;;;;;;;12.70;6.43;;;;;;;17.16;70.82;95247.41;5088760;28;20194;-71
2022/10/12 12:20:04;;;;;;;8.77;5.78;;;;;;;17.29;70.55;95254.38;5088819;28;20291;-71
2022/10/12 12:22:49;;;;;;;10.20;5.63;;;;;;;17.34;69.87;95238.47;5093164;28;20549;-71
2022/10/12 12:25:29;;;;;;;15.85;8.88;;;;;;;17.28;70.52;95244.56;5099611;28;20200;-71
2022/10/12 12:27:59;;;;;;;11.25;5.78;;;;;;;17.27;70.80;95240.22;5110258;28;20258;-71
2022/10/12 12:30:35;;;;;;;11.55;6.38;;;;;;;17.21;70.66;95237.00;5089318;28;20257;-71
2022/10/12 12:33:05;;;;;;;13.25;6.72;;;;;;;17.56;71.06;95247.19;5096925;28;20229;-70
2022/10/12 12:35:37;;;;;;;13.98;9.10;;;;;;;17.64;69.95;95244.25;5109173;28;20209;-69
2022/10/12 12:38:22;;;;;;;12.65;8.40;;;;;;;17.37;70.12;95245.97;5110207;28;20193;-70
2022/10/12 12:41:03;;;;;;;10.48;5.63;;;;;;;17.56;69.86;95242.50;5108509;28;20735;-71
2022/10/12 12:43:58;;;;;;;12.80;8.50;;;;;;;17.38;70.71;95253.03;5109657;28;20222;-71
2022/10/12 12:46:41;;;;;;;14.23;9.00;;;;;;;17.38;70.88;95244.00;5110027;28;20251;-71
2022/10/12 12:49:25;;;;;;;12.43;7.90;;;;;;;17.18;70.38;95253.31;5108739;28;20262;-70
2022/10/12 12:51:56;;;;;;;15.40;9.27;;;;;;;17.14;70.93;95246.97;5092907;28;20194;-70
2022/10/12 12:54:24;;;;;;;14.27;8.63;;;;;;;17.31;70.80;95249.34;5099121;28;20553;-71
2022/10/12 12:57:08;;;;;;;16.85;8.25;;;;;;;17.24;70.37;95246.41;5109173;28;20255;-71
2022/10/12 12:59:54;;;;;;;11.25;6.13;;;;;;;17.50;69.93;95248.59;5109670;28;20656;-71
2022/10/12 13:02:47;;;;;;;11.93;5.90;;;;;;;17.30;70.39;95254.03;5108982;28;20286;-71
2022/10/12 13:05:46;;;;;;;10.30;6.32;;;;;;;16.99;71.22;95252.06;5109598;28;20258;-71
2022/10/12 13:08:24;;;;;;;10.73;6.25;;;;;;;17.25;70.64;95253.47;5098247;28;20193;-71
2022/10/12 13:11:14;;;;;;;14.65;6.78;;;;;;;17.55;70.03;95246.38;5110038;28;20194;-72
2022/10/12 13:13:54;;;;;;;9.93;6.00;;;;;;;17.71;69.14;95249.91;5109390;28;20222;-71
2022/10/12 13:16:37;;;;;;;12.52;6.65;;;;;;;17.54;69.42;95254.94;5096103;28;20250;-71
2022/10/12 13:19:10;;;;;;;10.90;6.13;;;;;;;17.47;69.36;95252.84;5095755;28;20244;-71
2022/10/12 13:21:40;;;;;;;11.25;6.07;;;;;;;17.18;70.61;95254.13;5093136;28;20607;-71
2022/10/12 13:24:16;;;;;;;10.43;5.95;;;;;;;17.10;71.33;95251.53;5090661;28;20210;-72